createdAt,value
2022-11-17T00:02:21.014Z,7.62
2022-11-17T00:04:50.371Z,7.59
2022-11-17T00:07:19.717Z,7.57
2022-11-17T00:09:50.664Z,7.50
2022-11-17T00:12:37.238Z,7.47
2022-11-17T00:15:07.752Z,7.47
2022-11-17T00:17:37.072Z,7.47
2022-11-17T00:20:40.000Z,7.46
2022-11-17T00:23:09.462Z,7.48
2022-11-17T00:25:40.243Z,7.47
2022-11-17T00:28:09.689Z,7.52
2022-11-17T00:30:56.268Z,7.56
2022-11-17T00:33:42.818Z,7.58
2022-11-17T00:36:12.235Z,7.54
2022-11-17T00:38:41.731Z,7.51
2022-11-17T00:41:12.501Z,7.48
2022-11-17T00:43:41.785Z,7.47
2022-11-17T00:46:11.169Z,7.45
2022-11-17T00:51:09.895Z,7.51
2022-11-17T00:53:39.314Z,7.48
2022-11-17T00:56:09.060Z,7.47
2022-11-17T00:58:38.677Z,7.53
2022-11-17T01:01:08.468Z,7.57
2022-11-17T01:03:38.404Z,7.59
2022-11-17T01:06:13.150Z,7.59
2022-11-17T01:08:42.753Z,7.57
2022-11-17T01:11:15.117Z,7.52
2022-11-17T01:13:46.053Z,7.46
2022-11-17T01:16:18.434Z,7.45
2022-11-17T01:18:50.299Z,7.45
2022-11-17T01:21:22.872Z,7.43
2022-11-17T01:23:55.041Z,7.45
2022-11-17T01:26:27.007Z,7.48
2022-11-17T01:28:56.443Z,7.46
2022-11-17T01:31:28.890Z,7.48
2022-11-17T01:33:59.199Z,7.52
2022-11-17T01:36:52.971Z,7.51
2022-11-17T01:39:22.522Z,7.49
2022-11-17T01:41:52.116Z,7.44
2022-11-17T01:44:58.789Z,7.41
2022-11-17T01:47:40.361Z,7.39
2022-11-17T01:50:23.051Z,7.39
2022-11-17T01:52:57.299Z,7.42
2022-11-17T01:55:31.700Z,7.44
2022-11-17T01:58:04.936Z,7.40
2022-11-17T02:00:34.638Z,7.40
2022-11-17T02:03:07.464Z,7.43
2022-11-17T02:05:47.014Z,7.37
2022-11-17T02:08:20.152Z,7.28
2022-11-17T02:10:53.796Z,7.21
2022-11-17T02:13:24.404Z,7.15
2022-11-17T02:15:53.865Z,7.17
2022-11-17T02:18:23.609Z,7.13
2022-11-17T02:21:08.691Z,7.03
2022-11-17T02:24:35.702Z,6.89
2022-11-17T02:27:43.839Z,6.81
2022-11-17T02:30:16.954Z,6.85
2022-11-17T02:33:01.776Z,6.87
2022-11-17T02:35:43.352Z,6.85
2022-11-17T02:38:28.706Z,6.80
2022-11-17T02:41:06.808Z,6.77
2022-11-17T02:44:02.406Z,6.85
2022-11-17T02:46:41.919Z,6.87
2022-11-17T02:49:21.725Z,6.85
2022-11-17T02:51:56.514Z,6.77
2022-11-17T02:54:30.037Z,6.76
2022-11-17T02:56:59.370Z,6.81
2022-11-17T02:59:34.611Z,6.80
2022-11-17T03:02:35.609Z,6.81
2022-11-17T03:05:16.676Z,6.81
2022-11-17T03:08:03.672Z,6.79
2022-11-17T03:10:47.694Z,6.74
2022-11-17T03:13:25.808Z,6.69
2022-11-17T03:16:05.126Z,6.72
2022-11-17T03:18:44.232Z,6.70
2022-11-17T03:21:23.549Z,6.67
2022-11-17T03:24:00.154Z,6.63
2022-11-17T03:26:36.522Z,6.56
2022-11-17T03:29:12.511Z,6.53
2022-11-17T03:31:46.147Z,6.52
2022-11-17T03:34:20.254Z,6.48
2022-11-17T03:36:55.012Z,6.47
2022-11-17T03:39:29.861Z,6.46
2022-11-17T03:42:04.784Z,6.46
2022-11-17T03:44:40.113Z,6.48
2022-11-17T03:47:14.219Z,6.47
2022-11-17T03:52:09.696Z,6.42
2022-11-17T03:54:39.906Z,6.42
2022-11-17T03:57:15.966Z,6.44
2022-11-17T03:59:55.262Z,6.42
2022-11-17T04:02:26.632Z,6.44
2022-11-17T04:05:08.136Z,6.49
2022-11-17T04:07:41.547Z,6.50
2022-11-17T04:10:13.545Z,6.43
2022-11-17T04:13:00.692Z,6.37
2022-11-17T04:15:47.982Z,6.42
2022-11-17T04:18:17.977Z,6.41
2022-11-17T04:20:52.851Z,6.46
2022-11-17T04:23:24.170Z,6.58
2022-11-17T04:26:13.211Z,6.61
2022-11-17T04:28:46.666Z,6.56
2022-11-17T04:31:18.607Z,6.51
2022-11-17T04:33:50.252Z,6.49
2022-11-17T04:36:22.094Z,6.52
2022-11-17T04:38:56.390Z,6.52
2022-11-17T04:41:45.523Z,6.50
2022-11-17T04:44:17.674Z,6.49
2022-11-17T04:46:47.943Z,6.49
2022-11-17T04:49:19.284Z,6.52
2022-11-17T04:51:49.769Z,6.54
2022-11-17T04:54:24.376Z,6.53
2022-11-17T04:56:55.036Z,6.48
2022-11-17T04:59:25.276Z,6.48
2022-11-17T05:01:54.755Z,6.51
2022-11-17T05:04:41.693Z,6.54
2022-11-17T05:07:11.409Z,6.60
2022-11-17T05:09:42.252Z,6.59
2022-11-17T05:12:29.435Z,6.59
2022-11-17T05:14:59.871Z,6.57
2022-11-17T05:17:28.064Z,6.60
2022-11-17T05:19:59.075Z,6.59
2022-11-17T05:22:45.803Z,6.53
2022-11-17T05:25:16.772Z,6.51
2022-11-17T05:27:45.992Z,6.51
2022-11-17T05:30:16.524Z,6.52
2022-11-17T05:32:45.849Z,6.54
2022-11-17T05:35:15.233Z,6.53
2022-11-17T05:37:44.603Z,6.47
2022-11-17T05:40:16.416Z,6.49
2022-11-17T05:42:45.783Z,6.61
2022-11-17T05:45:15.338Z,6.69
2022-11-17T05:47:44.744Z,6.69
2022-11-17T05:50:14.324Z,6.57
2022-11-17T05:52:43.687Z,6.51
2022-11-17T05:55:12.950Z,6.56
2022-11-17T05:57:44.444Z,6.68
2022-11-17T06:00:15.788Z,6.67
2022-11-17T06:02:50.415Z,6.62
2022-11-17T06:05:20.678Z,6.60
2022-11-17T06:07:50.415Z,6.65
2022-11-17T06:10:20.424Z,6.72
2022-11-17T06:12:51.117Z,6.89
2022-11-17T06:15:20.580Z,6.96
2022-11-17T06:17:55.368Z,6.99
2022-11-17T06:20:29.897Z,7.04
2022-11-17T06:23:03.449Z,7.07
2022-11-17T06:25:33.854Z,7.11
2022-11-17T06:28:08.111Z,7.24
2022-11-17T06:30:39.294Z,7.37
2022-11-17T06:33:11.776Z,7.37
2022-11-17T06:35:42.412Z,7.37
2022-11-17T06:38:11.697Z,7.42
2022-11-17T06:40:41.169Z,7.45
2022-11-17T06:43:11.998Z,7.49
2022-11-17T06:45:43.690Z,7.53
2022-11-17T06:48:15.689Z,7.58
2022-11-17T06:52:11.214Z,7.62
2022-11-17T06:54:40.546Z,7.69
2022-11-17T06:57:09.936Z,7.79
2022-11-17T06:59:39.755Z,7.90
2022-11-17T07:02:09.044Z,7.98
2022-11-17T07:04:38.595Z,8.02
2022-11-17T07:07:09.428Z,8.03
2022-11-17T07:09:39.536Z,8.05
2022-11-17T07:12:09.136Z,8.06
2022-11-17T07:14:38.433Z,8.10
2022-11-17T07:17:09.116Z,8.16
2022-11-17T07:19:38.527Z,8.19
2022-11-17T07:22:09.483Z,8.24
2022-11-17T07:24:38.900Z,8.29
2022-11-17T07:27:08.375Z,8.35
2022-11-17T07:29:37.836Z,8.36
2022-11-17T07:32:08.870Z,8.38
2022-11-17T07:34:38.192Z,8.44
2022-11-17T07:37:09.033Z,8.55
2022-11-17T07:39:38.685Z,8.64
2022-11-17T07:42:08.416Z,8.68
2022-11-17T07:44:38.231Z,8.73
2022-11-17T07:47:07.753Z,8.72
2022-11-17T07:49:37.215Z,8.74
2022-11-17T07:52:08.458Z,8.75
2022-11-17T07:54:37.961Z,8.74
2022-11-17T07:57:07.400Z,8.82
2022-11-17T07:59:36.835Z,8.86
2022-11-17T08:02:06.276Z,8.89
2022-11-17T08:04:35.877Z,8.91
2022-11-17T08:07:05.271Z,8.95
2022-11-17T08:09:36.125Z,8.98
2022-11-17T08:12:06.217Z,8.99
2022-11-17T08:14:35.775Z,8.95
2022-11-17T08:17:05.277Z,8.94
2022-11-17T08:19:34.821Z,8.92
2022-11-17T08:22:04.394Z,8.96
2022-11-17T08:24:35.372Z,8.99
2022-11-17T08:27:04.673Z,9.00
2022-11-17T08:29:34.432Z,8.99
2022-11-17T08:32:03.933Z,9.00
2022-11-17T08:34:33.298Z,9.01
2022-11-17T08:37:03.271Z,9.05
2022-11-17T08:39:32.635Z,9.08
2022-11-17T08:42:03.536Z,9.09
2022-11-17T08:44:33.009Z,9.09
2022-11-17T08:47:02.402Z,9.15
2022-11-17T08:49:31.854Z,9.16
2022-11-17T08:52:01.295Z,9.18
2022-11-17T08:54:30.865Z,9.19
2022-11-17T08:57:02.148Z,9.21
2022-11-17T08:59:31.660Z,9.20
2022-11-17T09:02:01.069Z,9.20
2022-11-17T09:04:31.102Z,9.19
2022-11-17T09:07:00.765Z,9.19
2022-11-17T09:09:33.267Z,9.22
2022-11-17T09:12:04.262Z,9.20
2022-11-17T09:14:33.708Z,9.19
2022-11-17T09:17:03.117Z,9.19
2022-11-17T09:19:32.619Z,9.22
2022-11-17T09:22:02.024Z,9.22
2022-11-17T09:24:31.366Z,9.23
2022-11-17T09:27:03.158Z,9.23
2022-11-17T09:29:34.071Z,9.25
2022-11-17T09:32:03.478Z,9.26
2022-11-17T09:34:32.940Z,9.24
2022-11-17T09:37:02.558Z,9.22
2022-11-17T09:39:31.938Z,9.21
2022-11-17T09:42:01.630Z,9.20
2022-11-17T09:44:42.665Z,9.24
2022-11-17T09:47:23.670Z,9.25
2022-11-17T09:52:20.558Z,9.29
2022-11-17T09:54:58.225Z,9.34
2022-11-17T09:57:38.560Z,9.42
2022-11-17T10:00:16.737Z,9.47
2022-11-17T10:02:46.412Z,9.51
2022-11-17T10:05:17.970Z,9.56
2022-11-17T10:07:53.958Z,9.60
2022-11-17T10:10:35.201Z,9.62
2022-11-17T10:13:07.725Z,9.66
2022-11-17T10:15:47.589Z,9.71
2022-11-17T10:18:19.205Z,9.79
2022-11-17T10:20:49.136Z,9.90
2022-11-17T10:23:22.200Z,9.93
2022-11-17T10:26:00.176Z,9.95
2022-11-17T10:28:33.230Z,9.95
2022-11-17T10:31:05.392Z,9.96
2022-11-17T10:33:38.519Z,9.98
2022-11-17T10:36:18.569Z,9.97
2022-11-17T10:38:52.006Z,10.04
2022-11-17T10:41:25.726Z,10.09
2022-11-17T10:44:03.599Z,10.06
2022-11-17T10:46:44.928Z,10.08
2022-11-17T10:49:28.631Z,10.12
2022-11-17T10:52:16.853Z,10.13
2022-11-17T10:54:50.028Z,10.12
2022-11-17T10:57:25.280Z,10.14
2022-11-17T10:59:57.852Z,10.19
2022-11-17T11:02:33.186Z,10.20
2022-11-17T11:05:14.273Z,10.22
2022-11-17T11:07:44.518Z,10.32
2022-11-17T11:10:21.999Z,10.38
2022-11-17T11:13:01.417Z,10.41
2022-11-17T11:15:36.998Z,10.46
2022-11-17T11:18:15.091Z,10.53
2022-11-17T11:20:55.767Z,10.56
2022-11-17T11:23:41.394Z,10.58
2022-11-17T11:26:25.779Z,10.61
2022-11-17T11:29:10.311Z,10.63
2022-11-17T11:31:54.718Z,10.63
2022-11-17T11:34:58.366Z,10.55
2022-11-17T11:37:39.134Z,10.50
2022-11-17T11:40:22.017Z,10.48
2022-11-17T11:42:59.229Z,10.51
2022-11-17T11:45:46.973Z,10.52
2022-11-17T11:48:22.356Z,10.53
2022-11-17T11:50:58.325Z,10.48
2022-11-17T11:53:43.720Z,10.44
2022-11-17T11:56:20.805Z,10.38
2022-11-17T11:59:01.599Z,10.30
2022-11-17T12:01:38.359Z,10.26
2022-11-17T12:04:22.998Z,10.27
2022-11-17T12:07:00.840Z,10.28
2022-11-17T12:09:50.811Z,10.31
2022-11-17T12:12:24.526Z,10.35
2022-11-17T12:15:26.378Z,10.39
2022-11-17T12:18:04.490Z,10.43
2022-11-17T12:20:56.968Z,10.51
2022-11-17T12:23:50.363Z,10.52
2022-11-17T12:26:27.632Z,10.55
2022-11-17T12:29:34.449Z,10.53
2022-11-17T12:32:06.189Z,10.50
2022-11-17T12:34:37.427Z,10.45
2022-11-17T12:37:26.615Z,10.37
2022-11-17T12:40:02.998Z,10.29
2022-11-17T12:42:34.346Z,10.26
2022-11-17T12:45:09.728Z,10.24
2022-11-17T12:47:48.125Z,10.22
2022-11-17T12:52:20.714Z,10.19
2022-11-17T12:55:00.372Z,10.17
2022-11-17T12:57:34.437Z,10.18
2022-11-17T13:00:12.353Z,10.14
2022-11-17T13:03:06.672Z,10.12
2022-11-17T13:05:36.169Z,10.05
2022-11-17T13:08:25.664Z,9.98
2022-11-17T13:11:07.450Z,9.91
2022-11-17T13:13:37.254Z,9.87
2022-11-17T13:16:10.186Z,9.91
2022-11-17T13:18:43.225Z,9.96
2022-11-17T13:21:30.430Z,9.98
2022-11-17T13:24:02.731Z,9.98
2022-11-17T13:26:38.475Z,10.04
2022-11-17T13:29:09.717Z,10.14
2022-11-17T13:31:39.309Z,10.22
2022-11-17T13:34:17.449Z,10.29
2022-11-17T13:36:56.449Z,10.36
2022-11-17T13:39:28.719Z,10.43
2022-11-17T13:42:00.311Z,10.48
2022-11-17T13:44:30.854Z,10.48
2022-11-17T13:47:04.184Z,10.48
2022-11-17T13:49:36.883Z,10.48
2022-11-17T13:52:06.761Z,10.48
2022-11-17T13:54:37.760Z,10.46
2022-11-17T13:57:10.130Z,10.44
2022-11-17T13:59:41.573Z,10.43
2022-11-17T14:02:30.517Z,10.41
2022-11-17T14:05:24.289Z,10.42
2022-11-17T14:07:55.429Z,10.42
2022-11-17T14:10:35.069Z,10.37
2022-11-17T14:13:30.096Z,10.35
2022-11-17T14:16:02.190Z,10.30
2022-11-17T14:18:37.078Z,10.26
2022-11-17T14:21:13.234Z,10.26
2022-11-17T14:23:43.949Z,10.21
2022-11-17T14:26:22.758Z,10.23
2022-11-17T14:28:54.107Z,10.17
2022-11-17T14:31:23.643Z,10.07
2022-11-17T14:33:53.309Z,9.97
2022-11-17T14:36:23.902Z,9.92
2022-11-17T14:38:53.677Z,9.94
2022-11-17T14:41:24.577Z,9.90
2022-11-17T14:43:53.997Z,9.93
2022-11-17T14:46:26.157Z,9.92
2022-11-17T14:48:56.800Z,9.91
2022-11-17T14:51:26.186Z,9.88
2022-11-17T14:53:56.050Z,9.88
2022-11-17T14:56:27.340Z,9.85
2022-11-17T14:58:58.894Z,9.80
2022-11-17T15:01:31.250Z,9.76
2022-11-17T15:04:21.089Z,9.75
2022-11-17T15:06:55.896Z,9.75
2022-11-17T15:09:25.131Z,9.75
2022-11-17T15:11:55.972Z,9.72
2022-11-17T15:14:25.454Z,9.72
2022-11-17T15:16:54.828Z,9.68
2022-11-17T15:19:24.317Z,9.56
2022-11-17T15:21:54.265Z,9.47
2022-11-17T15:24:24.003Z,9.32
2022-11-17T15:26:54.857Z,9.18
2022-11-17T15:29:24.709Z,9.04
2022-11-17T15:31:54.188Z,8.99
2022-11-17T15:34:23.600Z,8.90
2022-11-17T15:36:52.875Z,8.81
2022-11-17T15:39:22.474Z,8.72
2022-11-17T15:41:52.094Z,8.66
2022-11-17T15:44:23.037Z,8.53
2022-11-17T15:46:52.304Z,8.37
2022-11-17T15:52:09.446Z,8.27
2022-11-17T15:54:38.901Z,8.32
2022-11-17T15:57:08.392Z,8.22
2022-11-17T15:59:37.873Z,8.11
2022-11-17T16:02:11.290Z,8.05
2022-11-17T16:04:40.609Z,7.99
2022-11-17T16:07:11.630Z,7.90
2022-11-17T16:09:42.993Z,7.84
2022-11-17T16:12:13.436Z,7.77
2022-11-17T16:14:43.169Z,7.67
2022-11-17T16:17:12.565Z,7.58
2022-11-17T16:19:41.936Z,7.52
2022-11-17T16:22:12.809Z,7.46
2022-11-17T16:24:42.157Z,7.42
2022-11-17T16:27:13.625Z,7.32
2022-11-17T16:29:43.409Z,7.17
2022-11-17T16:32:12.794Z,7.16
2022-11-17T16:34:43.718Z,7.14
2022-11-17T16:37:15.752Z,6.99
2022-11-17T16:39:45.186Z,6.91
2022-11-17T16:42:14.529Z,6.77
2022-11-17T16:44:44.105Z,6.70
2022-11-17T16:47:13.669Z,6.70
2022-11-17T16:49:44.821Z,6.69
2022-11-17T16:52:18.898Z,6.61
2022-11-17T16:54:48.945Z,6.54
2022-11-17T16:57:18.390Z,6.56
2022-11-17T16:59:47.886Z,6.54
2022-11-17T17:02:17.225Z,6.51
2022-11-17T17:04:46.778Z,6.46
2022-11-17T17:07:18.628Z,6.38
2022-11-17T17:09:48.079Z,6.35
2022-11-17T17:12:17.549Z,6.25
2022-11-17T17:14:47.071Z,6.23
2022-11-17T17:17:16.490Z,6.27
2022-11-17T17:19:45.926Z,6.26
2022-11-17T17:22:15.304Z,6.21
2022-11-17T17:24:46.121Z,6.18
2022-11-17T17:27:15.511Z,6.16
2022-11-17T17:29:45.478Z,6.18
2022-11-17T17:32:15.472Z,6.19
2022-11-17T17:34:45.080Z,6.13
2022-11-17T17:37:14.389Z,6.14
2022-11-17T17:39:45.447Z,6.18
2022-11-17T17:42:14.990Z,6.16
2022-11-17T17:44:44.498Z,6.13
2022-11-17T17:47:13.964Z,6.12
2022-11-17T17:49:43.334Z,6.11
2022-11-17T17:52:14.084Z,6.09
2022-11-17T17:54:45.073Z,6.08
2022-11-17T17:57:14.570Z,6.11
2022-11-17T17:59:44.077Z,6.16
2022-11-17T18:02:13.467Z,6.14
2022-11-17T18:04:42.732Z,6.11
2022-11-17T18:07:12.262Z,6.09
2022-11-17T18:09:41.696Z,6.17
2022-11-17T18:12:12.525Z,6.20
2022-11-17T18:14:41.981Z,6.11
2022-11-17T18:17:11.533Z,6.08
2022-11-17T18:19:40.902Z,6.02
2022-11-17T18:22:10.349Z,5.98
2022-11-17T18:24:39.716Z,5.99
2022-11-17T18:27:10.553Z,5.92
2022-11-17T18:29:39.940Z,5.87
2022-11-17T18:32:09.386Z,5.85
2022-11-17T18:34:42.010Z,5.76
2022-11-17T18:37:11.540Z,5.71
2022-11-17T18:39:40.898Z,5.66
2022-11-17T18:42:11.844Z,5.61
2022-11-17T18:44:41.246Z,5.57
2022-11-17T18:47:10.683Z,5.57
2022-11-17T18:52:10.070Z,5.48
2022-11-17T18:54:39.513Z,5.41
2022-11-17T18:57:09.090Z,5.39
2022-11-17T18:59:38.371Z,5.36
2022-11-17T19:02:07.782Z,5.33
2022-11-17T19:04:37.177Z,5.29
2022-11-17T19:07:08.084Z,5.26
2022-11-17T19:09:37.561Z,5.26
2022-11-17T19:12:08.963Z,5.29
2022-11-17T19:14:38.431Z,5.34
2022-11-17T19:17:07.730Z,5.35
2022-11-17T19:19:37.089Z,5.25
2022-11-17T19:22:08.104Z,5.18
2022-11-17T19:24:38.994Z,5.21
2022-11-17T19:27:08.622Z,5.16
2022-11-17T19:29:39.022Z,5.11
2022-11-17T19:32:08.566Z,5.07
2022-11-17T19:34:38.137Z,5.03
2022-11-17T19:37:09.098Z,5.03
2022-11-17T19:39:38.597Z,5.01
2022-11-17T19:42:08.201Z,4.97
2022-11-17T19:44:37.653Z,4.96
2022-11-17T19:47:07.164Z,4.93
2022-11-17T19:49:36.648Z,4.91
2022-11-17T19:52:08.365Z,4.94
2022-11-17T19:54:37.838Z,4.92
2022-11-17T19:57:07.299Z,4.90
2022-11-17T19:59:36.738Z,5.06
2022-11-17T20:02:06.217Z,5.05
2022-11-17T20:04:35.639Z,5.07
2022-11-17T20:07:05.331Z,5.18
2022-11-17T20:09:36.329Z,5.30
2022-11-17T20:12:06.639Z,5.39
2022-11-17T20:14:36.008Z,5.36
2022-11-17T20:17:05.429Z,5.35
2022-11-17T20:19:35.325Z,5.34
2022-11-17T20:22:04.704Z,5.37
2022-11-17T20:24:35.605Z,5.36
2022-11-17T20:27:04.891Z,5.39
2022-11-17T20:29:34.445Z,5.43
2022-11-17T20:32:03.787Z,5.45
2022-11-17T20:34:33.198Z,5.53
2022-11-17T20:37:02.651Z,5.58
2022-11-17T20:39:31.973Z,5.54
2022-11-17T20:42:02.917Z,5.53
2022-11-17T20:44:32.865Z,5.56
2022-11-17T20:47:02.180Z,5.62
2022-11-17T20:49:32.050Z,5.68
2022-11-17T20:52:01.509Z,5.73
2022-11-17T20:54:30.917Z,5.74
2022-11-17T20:57:01.789Z,5.59
2022-11-17T20:59:31.185Z,5.52
2022-11-17T21:02:00.570Z,5.47
2022-11-17T21:04:30.598Z,5.45
2022-11-17T21:07:00.079Z,5.52
2022-11-17T21:09:29.524Z,5.65
2022-11-17T21:11:58.964Z,5.73
2022-11-17T21:14:30.808Z,5.71
2022-11-17T21:17:01.386Z,5.66
2022-11-17T21:19:33.241Z,5.62
2022-11-17T21:22:04.750Z,5.62
2022-11-17T21:24:34.249Z,5.60
2022-11-17T21:27:03.705Z,5.62
2022-11-17T21:29:34.633Z,5.72
2022-11-17T21:32:04.049Z,5.73
2022-11-17T21:34:33.473Z,5.59
2022-11-17T21:37:02.850Z,5.52
2022-11-17T21:39:32.315Z,5.46
2022-11-17T21:42:01.749Z,5.36
2022-11-17T21:44:31.475Z,5.48
2022-11-17T21:47:02.398Z,5.46
2022-11-17T21:52:09.506Z,5.25
2022-11-17T21:54:39.089Z,5.28
2022-11-17T21:57:08.669Z,5.31
2022-11-17T21:59:38.165Z,5.29
2022-11-17T22:02:07.495Z,5.19
2022-11-17T22:04:37.018Z,5.11
2022-11-17T22:07:08.039Z,5.14
2022-11-17T22:09:37.483Z,5.11
2022-11-17T22:12:07.304Z,5.00
2022-11-17T22:14:36.729Z,4.98
2022-11-17T22:17:06.079Z,5.01
2022-11-17T22:19:35.577Z,4.99
2022-11-17T22:22:05.018Z,5.01
2022-11-17T22:24:37.057Z,5.03
2022-11-17T22:27:09.100Z,5.03
2022-11-17T22:29:38.590Z,5.10
2022-11-17T22:32:08.253Z,5.14
2022-11-17T22:34:37.825Z,5.15
2022-11-17T22:37:07.320Z,5.11
2022-11-17T22:39:38.612Z,5.16
2022-11-17T22:42:08.720Z,5.08
2022-11-17T22:44:38.231Z,5.04
2022-11-17T22:47:07.844Z,5.06
2022-11-17T22:49:37.266Z,5.10
2022-11-17T22:52:08.487Z,5.15
2022-11-17T22:54:39.521Z,5.13
2022-11-17T22:57:08.870Z,5.16
2022-11-17T22:59:38.412Z,5.21
2022-11-17T23:02:07.824Z,5.20
2022-11-17T23:04:37.167Z,5.18
2022-11-17T23:07:06.667Z,5.24
2022-11-17T23:09:37.564Z,5.18
2022-11-17T23:12:07.692Z,5.12
2022-11-17T23:14:37.465Z,5.10
2022-11-17T23:17:06.850Z,5.09
2022-11-17T23:19:36.298Z,5.03
2022-11-17T23:22:05.735Z,4.96
2022-11-17T23:24:35.069Z,4.96
2022-11-17T23:27:06.087Z,4.96
2022-11-17T23:29:35.440Z,4.94
2022-11-17T23:32:04.987Z,4.95
2022-11-17T23:34:35.338Z,4.96
2022-11-17T23:37:04.791Z,4.94
2022-11-17T23:39:34.277Z,4.86
2022-11-17T23:42:05.654Z,4.82
2022-11-17T23:44:35.073Z,4.74
2022-11-17T23:47:04.501Z,4.71
2022-11-17T23:49:33.894Z,4.68
2022-11-17T23:52:03.431Z,4.64
2022-11-17T23:54:32.921Z,4.58
2022-11-17T23:57:02.446Z,4.58
2022-11-17T23:59:33.403Z,4.50
